This is the latest recevied weather packets stored in our database for station/object DL7KST-13. If no packets are shown the sender has not sent any weather packets the latest 10 day(s).
| Time | Temp. | Humidity | Pressure | Rain* | Wind** | Luminosity | Snow |
|---|---|---|---|---|---|---|---|
| 1777593383 | 3.89° C | 85% | 1019.4 hPa | 0 mm | 0.89 m/s, 47° | - | - |
| 1777592178 | 4.44° C | 85% | 1019.4 hPa | 0 mm | 0.45 m/s, 76° | - | - |
| 1777590973 | 5° C | 82% | 1019.4 hPa | 0 mm | 0.45 m/s, 185° | - | - |
| 1777589903 | 5° C | 82% | 1019.5 hPa | 0 mm | 0.45 m/s, 5° | - | - |
| 1777589767 | 5° C | 82% | 1019.5 hPa | 0 mm | 0.45 m/s, 5° | - | - |
| 1777588563 | 5.56° C | 81% | 1019.6 hPa | 0 mm | 0.89 m/s, 77° | - | - |
| 1777587358 | 5.56° C | 80% | 1019.7 hPa | 0 mm | 0.45 m/s, 25° | - | - |
| 1777586153 | 6.11° C | 79% | 1019.9 hPa | 0 mm | 0.89 m/s, 31° | - | - |
| 1777584949 | 6.11° C | 78% | 1019.8 hPa | 0 mm | 0 m/s | - | - |
| 1777583743 | 6.67° C | 75% | 1019.5 hPa | 0 mm | 0 m/s | - | - |
| 1777582538 | 7.22° C | 75% | 1019.5 hPa | 0 mm | 0.45 m/s, 73° | - | - |
| 1777581333 | 7.78° C | 72% | 1019.7 hPa | 0 mm | 0.45 m/s, 52° | - | - |
| 1777580129 | 8.33° C | 69% | 1019.6 hPa | 0 mm | 0.45 m/s, 74° | - | - |
| 1777578922 | 8.89° C | 65% | 1019.6 hPa | 0 mm | 0.45 m/s, 64° | - | - |
| 1777577718 | 10° C | 62% | 1019.4 hPa | 0 mm | 0.45 m/s, 72° | - | - |
| 1777576514 | 11.11° C | 56% | 1019.6 hPa | 0 mm | 0 m/s | - | - |
| 1777575308 | 12.22° C | 52% | 1019.4 hPa | 0 mm | 0 m/s | - | - |
| 1777574103 | 13.33° C | 48% | 1019.2 hPa | 0 mm | 0.45 m/s, 71° | - | - |
| 1777572898 | 15° C | 44% | 1019 hPa | 0 mm | 0 m/s | - | - |
| 1777571692 | 16.11° C | 40% | 1019 hPa | 0 mm | 0 m/s | - | - |
| 1777570539 | 16.67° C | 39% | 1019 hPa | 0 mm | 0.45 m/s, 32° | - | - |
| 1777570489 | 16.67° C | 39% | 1019 hPa | 0 mm | 0.45 m/s, 32° | - | - |
| 1777569285 | 17.22° C | 37% | 1019.1 hPa | 0 mm | 0.89 m/s, 25° | - | - |
| 1777568079 | 17.78° C | 36% | 1019.2 hPa | 0 mm | 0.45 m/s, 41° | - | - |
| 1777566873 | 17.78° C | 36% | 1019.1 hPa | 0 mm | 0.45 m/s, 59° | - | - |
* Rain latest hour (hover to see other rain measurements)
** Current wind speed in m/s (hover to see current wind gust speed)